Buoy 53593

sailwx.info

Track history (hours):
 
Tides and Currents Weather Stations Pressure Air Temp Water Temp Dewpoint Dewpoint Depression Visibility Wind Speed Wind Dir Waves Ship Positions

Drifting buoy 53593

Last reported at 2018-Feb-14 00:00 UTC. Time now 2018-Apr-23 23:25 UTC.
Position S 28°11' E 081°27'.
Warning: this ship's position is months out of date.

Barometer 1016.4 mb
Water temperature 24.1 ° C

Date/timePositionNaut miles runAvg speedWind from/ knotsBaromVisibWave heightAir tempDewpointWater temp
2018-Feb-14 00:00S 28°11' E 081°27'1 0.6 1016.4 24.1
2018-Feb-13 23:00S 28°10' E 081°27'1 1.3 1016.0 24.1
2018-Feb-13 22:00S 28°11' E 081°26'4 3.6 1016.1 24.1
2018-Feb-13 21:00S 28°13' E 081°23'1 0.2 1016.4 24.2
2018-Feb-13 16:00S 28°14' E 081°22'1 0.5 1018.4 24.2
2018-Feb-13 15:00S 28°14' E 081°22'2 2.2 1018.4 24.3
2018-Feb-13 14:00S 28°13' E 081°19'1 0.5 1018.0 24.3
2018-Feb-13 13:00S 28°13' E 081°20'0 0.0 1017.4 24.4
2018-Feb-13 12:00S 28°13' E 081°20'7 0.3 1017.1 24.5
2018-Feb-12 15:00S 28°16' E 081°13'1 0.6 1020.1 24.3
2018-Feb-12 14:00S 28°15' E 081°13'1 0.8 1019.7 24.4
2018-Feb-12 13:00S 28°14' E 081°12'0 0.0 1019.1 24.4
2018-Feb-12 12:00S 28°14' E 081°12'1 0.6 1018.6 24.5
2018-Feb-12 11:00S 28°14' E 081°12'0 0.0 1018.6 24.6
2018-Feb-12 10:00S 28°14' E 081°12'1 0.1 1018.7 24.6
2018-Feb-12 04:00S 28°13' E 081°13'1 0.6 1020.0 24.2
2018-Feb-12 03:00S 28°14' E 081°13'0 0.0 1020.1 24.2
2018-Feb-12 02:00S 28°14' E 081°13'2 0.5 1020.1 24.2
2018-Feb-11 22:00S 28°15' E 081°11'0 0.0 1019.1 24.3
2018-Feb-11 21:00S 28°15' E 081°11'1 0.5 1019.3 24.3
2018-Feb-11 20:00S 28°15' E 081°10'1 0.2 1019.8 24.4
2018-Feb-11 17:00S 28°14' E 081°10'1 0.5 1020.7 24.5
2018-Feb-11 16:00S 28°14' E 081°11'1 0.5 1020.7 24.5
2018-Feb-11 15:00S 28°14' E 081°10'1 0.3 1020.7 24.6
2018-Feb-11 13:00S 28°14' E 081°10'1 0.5 1019.5 24.7
2018-Feb-11 12:00S 28°14' E 081°10'1 0.3 1018.9 24.8
2018-Feb-11 10:00S 28°14' E 081°10'1 0.8 1019.2 24.8
2018-Feb-11 09:00S 28°14' E 081°09'0 0.0 1019.4 24.7
2018-Feb-11 05:00S 28°14' E 081°09'1 1.1 1021.3 24.2
2018-Feb-11 04:00S 28°14' E 081°10'1 0.4 1021.3 24.2
2018-Feb-11 02:00S 28°14' E 081°10'0 0.0 1021.1 24.1
2018-Feb-11 01:00S 28°14' E 081°10'1 0.8 1021.1 24.1
2018-Feb-11 00:00S 28°15' E 081°10'1 1.1 1020.8 24.1
2018-Feb-10 23:00S 28°15' E 081°09'0 0.0 1020.4 24.1
2018-Feb-10 22:00S 28°15' E 081°09'0 0.0 1020.2 24.2
2018-Feb-10 21:00S 28°15' E 081°09'1 0.2 1020.5 24.2
2018-Feb-10 16:00S 28°16' E 081°08'0 0.0 1021.9 24.3
2018-Feb-10 15:00S 28°16' E 081°08'1 0.6 1021.5 24.3
2018-Feb-10 14:00S 28°15' E 081°08'1 0.5 1021.0 24.3
2018-Feb-10 13:00S 28°15' E 081°07'1 0.5 1020.5 24.4
2018-Feb-10 12:00S 28°15' E 081°08'1 0.5 1020.1 24.4
2018-Feb-10 11:00S 28°15' E 081°07'1 0.6 1019.8 24.4
2018-Feb-10 10:00S 28°16' E 081°07'1 0.6 1019.6 24.4
2018-Feb-10 09:00S 28°15' E 081°07'1 0.1 1019.8 24.4
2018-Feb-10 03:00S 28°14' E 081°07'1 0.8 1021.7 24.2
2018-Feb-10 02:00S 28°15' E 081°06'0 0.0 1021.5 24.2
2018-Feb-10 01:00S 28°15' E 081°06'1 0.6 1021.2 24.2
2018-Feb-10 00:00S 28°14' E 081°06'0 0.0 1020.4 24.2
2018-Feb-09 22:00S 28°14' E 081°06'1 0.5 1019.8 24.2
2018-Feb-09 21:00S 28°14' E 081°05'2 0.1 1020.0 24.2
2018-Feb-08 08:00S 28°12' E 081°05'1 0.1 1016.7 24.1
2018-Feb-08 04:00S 28°12' E 081°06'1 0.6 1016.2 24.0
2018-Feb-08 03:00S 28°11' E 081°06'1 0.6 1015.8 24.0
2018-Feb-08 02:00S 28°12' E 081°06'0 0.0 1015.3 24.0
2018-Feb-08 01:00S 28°12' E 081°06'1 0.8 1014.6 24.0
2018-Feb-08 00:00S 28°13' E 081°07'1 1.3 1013.7 24.0
2018-Feb-07 23:00S 28°11' E 081°06'0 0.0 1013.1 24.0
2018-Feb-07 21:00S 28°11' E 081°06'1 0.3 1012.4 24.0
2018-Feb-07 17:00S 28°10' E 081°07'1 0.6 1012.6 23.9
2018-Feb-07 16:00S 28°10' E 081°07'0 0.0 1011.8 23.9
2018-Feb-07 15:00S 28°10' E 081°07'2 1.0 1011.1 23.9
2018-Feb-07 13:00S 28°08' E 081°08'2 2.0 1009.0 23.9
2018-Feb-07 12:00S 28°07' E 081°10'1 0.5 1008.3 23.9
2018-Feb-07 11:00S 28°07' E 081°11'1 0.5 1007.7 23.9
2018-Feb-07 10:00S 28°07' E 081°11'6 0.9 1007.4 23.9
2018-Feb-07 03:00S 28°05' E 081°18'2 1.2 1006.8 23.6
2018-Feb-07 01:00S 28°04' E 081°20'0 0.0 1005.6 23.6
2018-Feb-07 00:00S 28°04' E 081°20'1 1.2 1004.2 23.7
2018-Feb-06 23:00S 28°02' E 081°20'2 2.2 1004.5 23.7
2018-Feb-06 22:00S 28°02' E 081°23'9 1.8 1005.5 23.8
2018-Feb-06 17:00S 27°59' E 081°32'2 0.5 1007.3 24.1
2018-Feb-06 14:00S 27°59' E 081°34'0 0.0 1007.9 24.3
2018-Feb-06 13:00S 27°59' E 081°34'2 2.4 1008.1 24.4
2018-Feb-06 12:00S 27°58' E 081°37'2 2.1
2018-Feb-06 11:00S 27°58' E 081°39'5 4.6
2018-Feb-06 10:00S 27°56' E 081°44'0 0.0
2018-Feb-06 04:00S 27°56' E 081°44'3 1.5 1011.6 24.6
2018-Feb-06 02:00S 27°55' E 081°47'0 0.0 1011.9 24.6
2018-Feb-06 01:00S 27°55' E 081°47'0 0.0 1011.5 24.7
2018-Feb-06 00:00S 27°55' E 081°47'1 0.5 1011.1 24.7
2018-Feb-05 23:00S 27°55' E 081°47'1 1.2 1011.2 24.7
2018-Feb-05 22:00S 27°54' E 081°49'3 2.7 1011.3 24.7
2018-Feb-05 21:00S 27°54' E 081°52'0 0.0 1011.8 24.7
2018-Feb-05 20:00S 27°54' E 081°52'0 0.0 1012.2 24.7
2018-Feb-05 17:00S 27°54' E 081°52'1 0.8
2018-Feb-05 16:00S 27°55' E 081°52'1 0.5
2018-Feb-05 15:00S 27°55' E 081°53'1 1.3 1014.2 24.8
2018-Feb-05 14:00S 27°53' E 081°52'1 1.3 1013.8 24.8
2018-Feb-05 13:00S 27°55' E 081°53'1 0.6 1013.1 24.8
2018-Feb-05 12:00S 27°54' E 081°53'1 0.6 1012.5 24.8
2018-Feb-05 11:00S 27°55' E 081°53'1 1.3 1012.6 24.8
2018-Feb-05 10:00S 27°53' E 081°52'1 0.1 1012.5 24.8
2018-Feb-05 04:00S 27°53' E 081°52'0 0.0 1014.4 24.7
2018-Feb-05 03:00S 27°53' E 081°52'1 0.5 1014.3 24.7
2018-Feb-05 02:00S 27°53' E 081°53'1 0.8 1014.0 24.7
2018-Feb-05 01:00S 27°52' E 081°52'0 0.0 1013.7 24.7
2018-Feb-05 00:00S 27°52' E 081°52'3 0.4 1013.5 24.7
2018-Feb-04 16:00S 27°53' E 081°56'1 0.8 1014.7 24.8
2018-Feb-04 15:00S 27°53' E 081°56'0 0.0 1014.1 24.8
2018-Feb-04 14:00S 27°53' E 081°56'0 0.0 1013.7 24.8
2018-Feb-04 13:00S 27°53' E 081°56'1 0.6 1013.0 24.9
2018-Feb-04 12:00S 27°54' E 081°56'1 0.5 1012.7 24.9
2018-Feb-04 11:00S 27°54' E 081°56'0 0.0 1012.7 24.9
2018-Feb-04 10:00S 27°54' E 081°56'1 0.2 1012.7 24.9
2018-Feb-04 04:00S 27°53' E 081°55'1 0.3 1014.0 24.8
2018-Feb-04 02:00S 27°53' E 081°55'0 0.0 1013.3 24.7
2018-Feb-04 01:00S 27°53' E 081°55'2 1.7 1012.6 24.7
2018-Feb-04 00:00S 27°53' E 081°57'   1012.0 24.7
Track history (hours):
 
Tides and Currents Weather Stations Pressure Air Temp Water Temp Dewpoint Dewpoint Depression Visibility Wind Speed Wind Dir Waves Ship Positions

Drifting buoy 53593

Last reported at 2018-Feb-14 00:00 UTC. Time now 2018-Apr-23 23:25 UTC.
Position S 28°11' E 081°27'.
Warning: this ship's position is months out of date.

Barometer 1016.4 mb
Water temperature 24.1 ° C

Date/timePositionNaut miles runAvg speedWind from/ knotsBaromVisibWave heightAir tempDewpointWater temp
2018-Feb-14 00:00S 28°11' E 081°27'1 0.6 1016.4 24.1
2018-Feb-13 23:00S 28°10' E 081°27'1 1.3 1016.0 24.1
2018-Feb-13 22:00S 28°11' E 081°26'4 3.6 1016.1 24.1
2018-Feb-13 21:00S 28°13' E 081°23'1 0.2 1016.4 24.2
2018-Feb-13 16:00S 28°14' E 081°22'1 0.5 1018.4 24.2
2018-Feb-13 15:00S 28°14' E 081°22'2 2.2 1018.4 24.3
2018-Feb-13 14:00S 28°13' E 081°19'1 0.5 1018.0 24.3
2018-Feb-13 13:00S 28°13' E 081°20'0 0.0 1017.4 24.4
2018-Feb-13 12:00S 28°13' E 081°20'7 0.3 1017.1 24.5
2018-Feb-12 15:00S 28°16' E 081°13'1 0.6 1020.1 24.3
2018-Feb-12 14:00S 28°15' E 081°13'1 0.8 1019.7 24.4
2018-Feb-12 13:00S 28°14' E 081°12'0 0.0 1019.1 24.4
2018-Feb-12 12:00S 28°14' E 081°12'1 0.6 1018.6 24.5
2018-Feb-12 11:00S 28°14' E 081°12'0 0.0 1018.6 24.6
2018-Feb-12 10:00S 28°14' E 081°12'1 0.1 1018.7 24.6
2018-Feb-12 04:00S 28°13' E 081°13'1 0.6 1020.0 24.2
2018-Feb-12 03:00S 28°14' E 081°13'0 0.0 1020.1 24.2
2018-Feb-12 02:00S 28°14' E 081°13'2 0.5 1020.1 24.2
2018-Feb-11 22:00S 28°15' E 081°11'0 0.0 1019.1 24.3
2018-Feb-11 21:00S 28°15' E 081°11'1 0.5 1019.3 24.3
2018-Feb-11 20:00S 28°15' E 081°10'1 0.2 1019.8 24.4
2018-Feb-11 17:00S 28°14' E 081°10'1 0.5 1020.7 24.5
2018-Feb-11 16:00S 28°14' E 081°11'1 0.5 1020.7 24.5
2018-Feb-11 15:00S 28°14' E 081°10'1 0.3 1020.7 24.6
2018-Feb-11 13:00S 28°14' E 081°10'1 0.5 1019.5 24.7
2018-Feb-11 12:00S 28°14' E 081°10'1 0.3 1018.9 24.8
2018-Feb-11 10:00S 28°14' E 081°10'1 0.8 1019.2 24.8
2018-Feb-11 09:00S 28°14' E 081°09'0 0.0 1019.4 24.7
2018-Feb-11 05:00S 28°14' E 081°09'1 1.1 1021.3 24.2
2018-Feb-11 04:00S 28°14' E 081°10'1 0.4 1021.3 24.2
2018-Feb-11 02:00S 28°14' E 081°10'0 0.0 1021.1 24.1
2018-Feb-11 01:00S 28°14' E 081°10'1 0.8 1021.1 24.1
2018-Feb-11 00:00S 28°15' E 081°10'1 1.1 1020.8 24.1
2018-Feb-10 23:00S 28°15' E 081°09'0 0.0 1020.4 24.1
2018-Feb-10 22:00S 28°15' E 081°09'0 0.0 1020.2 24.2
2018-Feb-10 21:00S 28°15' E 081°09'1 0.2 1020.5 24.2
2018-Feb-10 16:00S 28°16' E 081°08'0 0.0 1021.9 24.3
2018-Feb-10 15:00S 28°16' E 081°08'1 0.6 1021.5 24.3
2018-Feb-10 14:00S 28°15' E 081°08'1 0.5 1021.0 24.3
2018-Feb-10 13:00S 28°15' E 081°07'1 0.5 1020.5 24.4
2018-Feb-10 12:00S 28°15' E 081°08'1 0.5 1020.1 24.4
2018-Feb-10 11:00S 28°15' E 081°07'1 0.6 1019.8 24.4
2018-Feb-10 10:00S 28°16' E 081°07'1 0.6 1019.6 24.4
2018-Feb-10 09:00S 28°15' E 081°07'1 0.1 1019.8 24.4
2018-Feb-10 03:00S 28°14' E 081°07'1 0.8 1021.7 24.2
2018-Feb-10 02:00S 28°15' E 081°06'0 0.0 1021.5 24.2
2018-Feb-10 01:00S 28°15' E 081°06'1 0.6 1021.2 24.2
2018-Feb-10 00:00S 28°14' E 081°06'0 0.0 1020.4 24.2
2018-Feb-09 22:00S 28°14' E 081°06'1 0.5 1019.8 24.2
2018-Feb-09 21:00S 28°14' E 081°05'2 0.1 1020.0 24.2
2018-Feb-08 08:00S 28°12' E 081°05'1 0.1 1016.7 24.1
2018-Feb-08 04:00S 28°12' E 081°06'1 0.6 1016.2 24.0
2018-Feb-08 03:00S 28°11' E 081°06'1 0.6 1015.8 24.0
2018-Feb-08 02:00S 28°12' E 081°06'0 0.0 1015.3 24.0
2018-Feb-08 01:00S 28°12' E 081°06'1 0.8 1014.6 24.0
2018-Feb-08 00:00S 28°13' E 081°07'1 1.3 1013.7 24.0
2018-Feb-07 23:00S 28°11' E 081°06'0 0.0 1013.1 24.0
2018-Feb-07 21:00S 28°11' E 081°06'1 0.3 1012.4 24.0
2018-Feb-07 17:00S 28°10' E 081°07'1 0.6 1012.6 23.9
2018-Feb-07 16:00S 28°10' E 081°07'0 0.0 1011.8 23.9
2018-Feb-07 15:00S 28°10' E 081°07'2 1.0 1011.1 23.9
2018-Feb-07 13:00S 28°08' E 081°08'2 2.0 1009.0 23.9
2018-Feb-07 12:00S 28°07' E 081°10'1 0.5 1008.3 23.9
2018-Feb-07 11:00S 28°07' E 081°11'1 0.5 1007.7 23.9
2018-Feb-07 10:00S 28°07' E 081°11'6 0.9 1007.4 23.9
2018-Feb-07 03:00S 28°05' E 081°18'2 1.2 1006.8 23.6
2018-Feb-07 01:00S 28°04' E 081°20'0 0.0 1005.6 23.6
2018-Feb-07 00:00S 28°04' E 081°20'1 1.2 1004.2 23.7
2018-Feb-06 23:00S 28°02' E 081°20'2 2.2 1004.5 23.7
2018-Feb-06 22:00S 28°02' E 081°23'9 1.8 1005.5 23.8
2018-Feb-06 17:00S 27°59' E 081°32'2 0.5 1007.3 24.1
2018-Feb-06 14:00S 27°59' E 081°34'0 0.0 1007.9 24.3
2018-Feb-06 13:00S 27°59' E 081°34'2 2.4 1008.1 24.4
2018-Feb-06 12:00S 27°58' E 081°37'2 2.1
2018-Feb-06 11:00S 27°58' E 081°39'5 4.6
2018-Feb-06 10:00S 27°56' E 081°44'0 0.0
2018-Feb-06 04:00S 27°56' E 081°44'3 1.5 1011.6 24.6
2018-Feb-06 02:00S 27°55' E 081°47'0 0.0 1011.9 24.6
2018-Feb-06 01:00S 27°55' E 081°47'0 0.0 1011.5 24.7
2018-Feb-06 00:00S 27°55' E 081°47'1 0.5 1011.1 24.7
2018-Feb-05 23:00S 27°55' E 081°47'1 1.2 1011.2 24.7
2018-Feb-05 22:00S 27°54' E 081°49'3 2.7 1011.3 24.7
2018-Feb-05 21:00S 27°54' E 081°52'0 0.0 1011.8 24.7
2018-Feb-05 20:00S 27°54' E 081°52'0 0.0 1012.2 24.7
2018-Feb-05 17:00S 27°54' E 081°52'1 0.8
2018-Feb-05 16:00S 27°55' E 081°52'1 0.5
2018-Feb-05 15:00S 27°55' E 081°53'1 1.3 1014.2 24.8
2018-Feb-05 14:00S 27°53' E 081°52'1 1.3 1013.8 24.8
2018-Feb-05 13:00S 27°55' E 081°53'1 0.6 1013.1 24.8
2018-Feb-05 12:00S 27°54' E 081°53'1 0.6 1012.5 24.8
2018-Feb-05 11:00S 27°55' E 081°53'1 1.3 1012.6 24.8
2018-Feb-05 10:00S 27°53' E 081°52'1 0.1 1012.5 24.8
2018-Feb-05 04:00S 27°53' E 081°52'0 0.0 1014.4 24.7
2018-Feb-05 03:00S 27°53' E 081°52'1 0.5 1014.3 24.7
2018-Feb-05 02:00S 27°53' E 081°53'1 0.8 1014.0 24.7
2018-Feb-05 01:00S 27°52' E 081°52'0 0.0 1013.7 24.7
2018-Feb-05 00:00S 27°52' E 081°52'3 0.4 1013.5 24.7
2018-Feb-04 16:00S 27°53' E 081°56'1 0.8 1014.7 24.8
2018-Feb-04 15:00S 27°53' E 081°56'0 0.0 1014.1 24.8
2018-Feb-04 14:00S 27°53' E 081°56'0 0.0 1013.7 24.8
2018-Feb-04 13:00S 27°53' E 081°56'1 0.6 1013.0 24.9
2018-Feb-04 12:00S 27°54' E 081°56'1 0.5 1012.7 24.9
2018-Feb-04 11:00S 27°54' E 081°56'0 0.0 1012.7 24.9
2018-Feb-04 10:00S 27°54' E 081°56'1 0.2 1012.7 24.9
2018-Feb-04 04:00S 27°53' E 081°55'1 0.3 1014.0 24.8
2018-Feb-04 02:00S 27°53' E 081°55'0 0.0 1013.3 24.7
2018-Feb-04 01:00S 27°53' E 081°55'2 1.7 1012.6 24.7
2018-Feb-04 00:00S 27°53' E 081°57'   1012.0 24.7

Dump ship's entire track history